sensor_id;sensor_type;location;lat;lon;timestamp;pressure;altitude;pressure_sealevel;temperature;humidity
54144;BME280;40050;47.324;18.792;2022-09-09T00:00:19;1000.67;;;21.97;71.39
54144;BME280;40050;47.324;18.792;2022-09-09T00:02:24;1000.85;;;22.03;71.39
54144;BME280;40050;47.324;18.792;2022-09-09T00:04:29;1000.57;;;21.84;71.33
54144;BME280;40050;47.324;18.792;2022-09-09T00:06:31;1000.81;;;21.99;71.62
54144;BME280;40050;47.324;18.792;2022-09-09T00:08:42;1000.85;;;21.97;71.76
54144;BME280;40050;47.324;18.792;2022-09-09T00:10:51;1000.85;;;21.94;71.74
54144;BME280;40050;47.324;18.792;2022-09-09T00:13:02;1000.86;;;21.95;71.57
54144;BME280;40050;47.324;18.792;2022-09-09T00:15:12;1000.81;;;21.90;71.84
54144;BME280;40050;47.324;18.792;2022-09-09T00:24:24;1000.65;;;21.83;71.88
54144;BME280;40050;47.324;18.792;2022-09-09T00:26:32;1000.62;;;21.79;72.00
54144;BME280;40050;47.324;18.792;2022-09-09T00:28:55;1000.68;;;21.79;72.09
54144;BME280;40050;47.324;18.792;2022-09-09T00:30:51;1000.65;;;21.74;72.44
54144;BME280;40050;47.324;18.792;2022-09-09T00:32:55;1000.65;;;21.71;72.33
54144;BME280;40050;47.324;18.792;2022-09-09T00:35:03;1000.66;;;21.67;72.50
54144;BME280;40050;47.324;18.792;2022-09-09T00:37:04;1000.61;;;21.61;72.45
54144;BME280;40050;47.324;18.792;2022-09-09T00:39:05;1000.65;;;21.61;72.56
54144;BME280;40050;47.324;18.792;2022-09-09T00:41:11;1000.68;;;21.63;72.58
54144;BME280;40050;47.324;18.792;2022-09-09T00:43:21;1000.80;;;21.60;72.38
54144;BME280;40050;47.324;18.792;2022-09-09T00:45:36;1000.77;;;21.61;72.06
54144;BME280;40050;47.324;18.792;2022-09-09T00:47:40;1000.82;;;21.55;72.41
54144;BME280;40050;47.324;18.792;2022-09-09T00:49:57;1000.84;;;21.55;72.33
54144;BME280;40050;47.324;18.792;2022-09-09T00:52:07;1000.89;;;21.53;72.30
54144;BME280;40050;47.324;18.792;2022-09-09T00:54:28;1000.94;;;21.49;72.22
54144;BME280;40050;47.324;18.792;2022-09-09T00:56:31;1000.95;;;21.50;72.30
54144;BME280;40050;47.324;18.792;2022-09-09T00:58:36;1000.93;;;21.49;72.38
54144;BME280;40050;47.324;18.792;2022-09-09T01:00:44;1001.00;;;21.46;72.14
54144;BME280;40050;47.324;18.792;2022-09-09T01:05:30;1001.08;;;21.43;72.29
54144;BME280;40050;47.324;18.792;2022-09-09T01:07:18;1001.07;;;21.38;72.28
54144;BME280;40050;47.324;18.792;2022-09-09T01:09:24;1001.09;;;21.36;72.23
54144;BME280;40050;47.324;18.792;2022-09-09T01:11:32;1001.18;;;21.36;72.39
54144;BME280;40050;47.324;18.792;2022-09-09T01:13:39;1001.16;;;21.32;72.59
54144;BME280;40050;47.324;18.792;2022-09-09T01:15:42;1001.20;;;21.34;72.71
54144;BME280;40050;47.324;18.792;2022-09-09T01:17:58;1001.21;;;21.35;72.70
54144;BME280;40050;47.324;18.792;2022-09-09T01:20:01;1001.19;;;21.33;72.27
54144;BME280;40050;47.324;18.792;2022-09-09T01:22:11;1001.22;;;21.32;72.04
54144;BME280;40050;47.324;18.792;2022-09-09T01:24:19;1000.94;;;21.10;72.33
54144;BME280;40050;47.324;18.792;2022-09-09T01:28:38;1001.31;;;21.24;72.61
54144;BME280;40050;47.324;18.792;2022-09-09T01:30:40;1001.30;;;21.20;72.58
54144;BME280;40050;47.324;18.792;2022-09-09T01:32:43;1001.29;;;21.15;72.89
54144;BME280;40050;47.324;18.792;2022-09-09T01:34:44;1001.29;;;21.09;73.09
54144;BME280;40050;47.324;18.792;2022-09-09T01:36:57;1001.27;;;21.08;73.32
54144;BME280;40050;47.324;18.792;2022-09-09T01:39:00;1001.26;;;21.08;73.50
54144;BME280;40050;47.324;18.792;2022-09-09T01:41:00;1001.31;;;21.10;73.36
54144;BME280;40050;47.324;18.792;2022-09-09T01:43:02;1001.36;;;21.11;73.31
54144;BME280;40050;47.324;18.792;2022-09-09T01:45:03;1001.38;;;21.11;72.92
54144;BME280;40050;47.324;18.792;2022-09-09T01:47:04;1001.32;;;21.08;72.81
54144;BME280;40050;47.324;18.792;2022-09-09T01:49:06;1001.32;;;21.07;72.91
54144;BME280;40050;47.324;18.792;2022-09-09T01:51:09;1001.24;;;21.04;72.90
54144;BME280;40050;47.324;18.792;2022-09-09T01:53:10;1001.26;;;21.05;72.65
54144;BME280;40050;47.324;18.792;2022-09-09T01:55:11;1001.23;;;21.03;72.88
54144;BME280;40050;47.324;18.792;2022-09-09T01:57:18;1001.26;;;21.00;72.84
54144;BME280;40050;47.324;18.792;2022-09-09T02:03:56;1001.34;;;20.93;73.13
54144;BME280;40050;47.324;18.792;2022-09-09T02:06:06;1001.37;;;20.97;73.07
54144;BME280;40050;47.324;18.792;2022-09-09T02:08:15;1001.40;;;20.92;72.99
54144;BME280;40050;47.324;18.792;2022-09-09T02:10:25;1001.37;;;20.90;73.20
54144;BME280;40050;47.324;18.792;2022-09-09T02:12:29;1001.38;;;20.88;73.37
54144;BME280;40050;47.324;18.792;2022-09-09T02:14:32;1001.41;;;20.85;73.40
54144;BME280;40050;47.324;18.792;2022-09-09T02:16:38;1001.24;;;20.72;73.57
54144;BME280;40050;47.324;18.792;2022-09-09T02:20:59;1001.42;;;20.83;73.34
54144;BME280;40050;47.324;18.792;2022-09-09T02:23:01;1001.36;;;20.83;73.20
54144;BME280;40050;47.324;18.792;2022-09-09T02:25:02;1001.40;;;20.86;73.08
54144;BME280;40050;47.324;18.792;2022-09-09T02:27:05;1001.43;;;20.87;73.05
54144;BME280;40050;47.324;18.792;2022-09-09T02:29:08;1001.40;;;20.86;73.02
54144;BME280;40050;47.324;18.792;2022-09-09T02:31:11;1001.45;;;20.88;72.87
54144;BME280;40050;47.324;18.792;2022-09-09T02:33:12;1001.32;;;20.80;72.91
54144;BME280;40050;47.324;18.792;2022-09-09T02:35:15;1001.45;;;20.91;72.91
54144;BME280;40050;47.324;18.792;2022-09-09T02:37:19;1001.44;;;20.91;72.77
54144;BME280;40050;47.324;18.792;2022-09-09T02:39:20;1001.43;;;20.91;72.88
54144;BME280;40050;47.324;18.792;2022-09-09T02:41:26;1001.39;;;20.88;72.90
54144;BME280;40050;47.324;18.792;2022-09-09T02:43:32;1001.38;;;20.87;73.14
54144;BME280;40050;47.324;18.792;2022-09-09T02:45:44;1001.39;;;20.84;73.21
54144;BME280;40050;47.324;18.792;2022-09-09T02:48:09;1001.37;;;20.85;73.22
54144;BME280;40050;47.324;18.792;2022-09-09T02:50:49;1001.41;;;20.83;73.28
54144;BME280;40050;47.324;18.792;2022-09-09T02:54:57;1001.48;;;20.79;73.38
54144;BME280;40050;47.324;18.792;2022-09-09T02:57:23;1001.52;;;20.83;73.29
54144;BME280;40050;47.324;18.792;2022-09-09T02:59:13;1001.54;;;20.81;73.28
54144;BME280;40050;47.324;18.792;2022-09-09T03:01:14;1001.54;;;20.78;73.29
54144;BME280;40050;47.324;18.792;2022-09-09T03:03:15;1001.29;;;20.62;73.32
54144;BME280;40050;47.324;18.792;2022-09-09T03:05:17;1001.55;;;20.78;73.21
54144;BME280;40050;47.324;18.792;2022-09-09T03:07:18;1001.55;;;20.76;73.03
54144;BME280;40050;47.324;18.792;2022-09-09T03:09:19;1001.50;;;20.74;73.20
54144;BME280;40050;47.324;18.792;2022-09-09T03:11:20;1001.51;;;20.70;73.10
54144;BME280;40050;47.324;18.792;2022-09-09T03:13:21;1001.44;;;20.67;73.02
54144;BME280;40050;47.324;18.792;2022-09-09T03:15:22;1001.45;;;20.67;72.73
54144;BME280;40050;47.324;18.792;2022-09-09T03:17:23;1001.42;;;20.63;73.10
54144;BME280;40050;47.324;18.792;2022-09-09T03:19:24;1001.42;;;20.63;72.99
54144;BME280;40050;47.324;18.792;2022-09-09T03:21:25;1001.42;;;20.60;73.10
54144;BME280;40050;47.324;18.792;2022-09-09T03:23:26;1001.36;;;20.57;72.99
54144;BME280;40050;47.324;18.792;2022-09-09T03:25:27;1001.37;;;20.55;72.82
54144;BME280;40050;47.324;18.792;2022-09-09T03:27:28;1001.33;;;20.53;72.80
54144;BME280;40050;47.324;18.792;2022-09-09T03:29:29;1001.45;;;20.51;72.63
54144;BME280;40050;47.324;18.792;2022-09-09T03:31:30;1001.51;;;20.49;72.63
54144;BME280;40050;47.324;18.792;2022-09-09T03:33:30;1001.54;;;20.49;72.75
54144;BME280;40050;47.324;18.792;2022-09-09T03:35:31;1001.51;;;20.45;72.68
54144;BME280;40050;47.324;18.792;2022-09-09T03:37:32;1001.55;;;20.45;72.75
54144;BME280;40050;47.324;18.792;2022-09-09T03:39:34;1001.58;;;20.41;72.61
54144;BME280;40050;47.324;18.792;2022-09-09T03:41:35;1001.60;;;20.41;72.60
54144;BME280;40050;47.324;18.792;2022-09-09T03:43:36;1001.55;;;20.38;72.62
54144;BME280;40050;47.324;18.792;2022-09-09T03:45:39;1001.59;;;20.37;72.57
54144;BME280;40050;47.324;18.792;2022-09-09T03:47:40;1001.52;;;20.32;72.49
54144;BME280;40050;47.324;18.792;2022-09-09T03:49:41;1001.53;;;20.31;72.50
54144;BME280;40050;47.324;18.792;2022-09-09T03:51:42;1001.52;;;20.28;72.71
54144;BME280;40050;47.324;18.792;2022-09-09T03:53:43;1001.49;;;20.24;72.77
54144;BME280;40050;47.324;18.792;2022-09-09T03:55:44;1001.56;;;20.26;72.86
54144;BME280;40050;47.324;18.792;2022-09-09T03:57:45;1001.56;;;20.22;72.74
54144;BME280;40050;47.324;18.792;2022-09-09T03:59:46;1001.51;;;20.18;72.86
54144;BME280;40050;47.324;18.792;2022-09-09T04:01:47;1001.54;;;20.17;72.98
54144;BME280;40050;47.324;18.792;2022-09-09T04:03:48;1001.54;;;20.15;73.00
54144;BME280;40050;47.324;18.792;2022-09-09T04:05:49;1001.53;;;20.12;73.20
54144;BME280;40050;47.324;18.792;2022-09-09T04:07:50;1001.49;;;20.10;73.11
54144;BME280;40050;47.324;18.792;2022-09-09T04:09:51;1001.56;;;20.06;73.01
54144;BME280;40050;47.324;18.792;2022-09-09T04:11:52;1001.57;;;20.07;73.03
54144;BME280;40050;47.324;18.792;2022-09-09T04:13:54;1001.63;;;20.05;73.21
54144;BME280;40050;47.324;18.792;2022-09-09T04:15:56;1001.62;;;20.04;73.44
54144;BME280;40050;47.324;18.792;2022-09-09T04:17:57;1001.60;;;20.01;73.51
54144;BME280;40050;47.324;18.792;2022-09-09T04:19:58;1001.58;;;20.01;73.43
54144;BME280;40050;47.324;18.792;2022-09-09T04:21:59;1001.58;;;19.99;73.34
54144;BME280;40050;47.324;18.792;2022-09-09T04:24:00;1001.49;;;19.88;73.62
54144;BME280;40050;47.324;18.792;2022-09-09T04:26:02;1001.54;;;19.93;73.57
54144;BME280;40050;47.324;18.792;2022-09-09T04:28:03;1001.53;;;19.96;73.62
54144;BME280;40050;47.324;18.792;2022-09-09T04:30:07;1001.46;;;19.96;73.72
54144;BME280;40050;47.324;18.792;2022-09-09T04:32:08;1001.40;;;19.96;73.46
54144;BME280;40050;47.324;18.792;2022-09-09T04:34:09;1001.39;;;19.96;73.29
54144;BME280;40050;47.324;18.792;2022-09-09T04:36:10;1001.43;;;19.96;73.19
54144;BME280;40050;47.324;18.792;2022-09-09T04:38:11;1001.53;;;19.97;73.22
54144;BME280;40050;47.324;18.792;2022-09-09T04:40:12;1001.55;;;19.98;73.25
54144;BME280;40050;47.324;18.792;2022-09-09T04:42:12;1001.55;;;19.92;73.35
54144;BME280;40050;47.324;18.792;2022-09-09T04:44:13;1001.53;;;19.92;73.50
54144;BME280;40050;47.324;18.792;2022-09-09T04:46:14;1001.48;;;19.92;73.53
54144;BME280;40050;47.324;18.792;2022-09-09T04:48:15;1001.52;;;19.98;73.51
54144;BME280;40050;47.324;18.792;2022-09-09T04:50:16;1001.50;;;20.00;73.60
54144;BME280;40050;47.324;18.792;2022-09-09T04:52:17;1001.51;;;20.01;73.52
54144;BME280;40050;47.324;18.792;2022-09-09T04:54:18;1001.50;;;20.03;73.49
54144;BME280;40050;47.324;18.792;2022-09-09T04:56:19;1001.56;;;20.04;73.33
54144;BME280;40050;47.324;18.792;2022-09-09T04:58:20;1001.61;;;20.06;73.43
54144;BME280;40050;47.324;18.792;2022-09-09T05:00:21;1001.67;;;20.07;73.27
54144;BME280;40050;47.324;18.792;2022-09-09T05:02:22;1001.72;;;20.09;73.03
54144;BME280;40050;47.324;18.792;2022-09-09T05:04:23;1001.69;;;20.10;73.16
54144;BME280;40050;47.324;18.792;2022-09-09T05:06:24;1001.64;;;20.10;73.22
54144;BME280;40050;47.324;18.792;2022-09-09T05:08:24;1001.63;;;20.13;72.75
54144;BME280;40050;47.324;18.792;2022-09-09T05:10:25;1001.63;;;20.12;72.79
54144;BME280;40050;47.324;18.792;2022-09-09T05:12:26;1001.58;;;20.11;73.18
54144;BME280;40050;47.324;18.792;2022-09-09T05:14:27;1001.63;;;20.12;72.69
54144;BME280;40050;47.324;18.792;2022-09-09T05:16:28;1001.67;;;20.09;73.23
54144;BME280;40050;47.324;18.792;2022-09-09T05:18:29;1001.69;;;20.09;73.49
54144;BME280;40050;47.324;18.792;2022-09-09T05:20:30;1001.66;;;20.11;73.03
54144;BME280;40050;47.324;18.792;2022-09-09T05:22:31;1001.65;;;20.11;73.35
54144;BME280;40050;47.324;18.792;2022-09-09T05:24:32;1001.63;;;20.13;73.54
54144;BME280;40050;47.324;18.792;2022-09-09T05:26:33;1001.68;;;20.19;73.43
54144;BME280;40050;47.324;18.792;2022-09-09T05:28:34;1001.72;;;20.22;73.15
54144;BME280;40050;47.324;18.792;2022-09-09T05:30:35;1001.67;;;20.19;73.33
54144;BME280;40050;47.324;18.792;2022-09-09T05:32:36;1001.66;;;20.16;73.46
54144;BME280;40050;47.324;18.792;2022-09-09T05:34:37;1001.70;;;20.24;73.10
54144;BME280;40050;47.324;18.792;2022-09-09T05:36:38;1001.74;;;20.23;72.93
54144;BME280;40050;47.324;18.792;2022-09-09T05:38:39;1001.74;;;20.26;73.09
54144;BME280;40050;47.324;18.792;2022-09-09T05:40:46;1001.72;;;20.28;73.02
54144;BME280;40050;47.324;18.792;2022-09-09T05:42:47;1001.78;;;20.31;73.30
54144;BME280;40050;47.324;18.792;2022-09-09T05:44:48;1001.80;;;20.35;73.47
54144;BME280;40050;47.324;18.792;2022-09-09T05:46:49;1001.82;;;20.40;73.78
54144;BME280;40050;47.324;18.792;2022-09-09T05:48:50;1001.89;;;20.48;72.91
54144;BME280;40050;47.324;18.792;2022-09-09T05:50:54;1001.89;;;20.52;73.08
54144;BME280;40050;47.324;18.792;2022-09-09T05:52:55;1001.91;;;20.52;72.74
54144;BME280;40050;47.324;18.792;2022-09-09T05:54:56;1001.93;;;20.58;73.15
54144;BME280;40050;47.324;18.792;2022-09-09T05:56:57;1001.97;;;20.65;72.48
54144;BME280;40050;47.324;18.792;2022-09-09T05:58:58;1002.02;;;20.71;72.83
54144;BME280;40050;47.324;18.792;2022-09-09T06:01:05;1002.05;;;20.77;73.23
54144;BME280;40050;47.324;18.792;2022-09-09T06:03:08;1002.05;;;20.83;73.63
54144;BME280;40050;47.324;18.792;2022-09-09T06:05:10;1002.00;;;20.90;73.58
54144;BME280;40050;47.324;18.792;2022-09-09T06:07:11;1001.86;;;20.90;73.72
54144;BME280;40050;47.324;18.792;2022-09-09T06:09:20;1001.92;;;21.01;73.62
54144;BME280;40050;47.324;18.792;2022-09-09T06:11:22;1001.87;;;21.07;73.37
54144;BME280;40050;47.324;18.792;2022-09-09T06:13:23;1001.85;;;21.13;73.55
54144;BME280;40050;47.324;18.792;2022-09-09T06:15:24;1001.84;;;21.20;73.29
54144;BME280;40050;47.324;18.792;2022-09-09T06:17:25;1001.80;;;21.25;72.94
54144;BME280;40050;47.324;18.792;2022-09-09T06:19:26;1001.76;;;21.33;73.01
54144;BME280;40050;47.324;18.792;2022-09-09T06:21:30;1001.78;;;21.41;72.84
54144;BME280;40050;47.324;18.792;2022-09-09T06:23:32;1001.78;;;21.48;71.90
54144;BME280;40050;47.324;18.792;2022-09-09T06:25:33;1001.73;;;21.52;71.75
54144;BME280;40050;47.324;18.792;2022-09-09T06:27:34;1001.74;;;21.62;71.63
54144;BME280;40050;47.324;18.792;2022-09-09T06:29:35;1001.73;;;21.68;71.28
54144;BME280;40050;47.324;18.792;2022-09-09T06:31:36;1001.75;;;21.74;70.58
54144;BME280;40050;47.324;18.792;2022-09-09T06:33:38;1001.75;;;21.75;71.09
54144;BME280;40050;47.324;18.792;2022-09-09T06:35:39;1001.78;;;21.81;71.02
54144;BME280;40050;47.324;18.792;2022-09-09T06:37:44;1001.87;;;21.88;70.66
54144;BME280;40050;47.324;18.792;2022-09-09T06:39:45;1001.86;;;21.90;69.44
54144;BME280;40050;47.324;18.792;2022-09-09T06:41:46;1001.89;;;21.94;69.02
54144;BME280;40050;47.324;18.792;2022-09-09T06:43:47;1001.94;;;21.95;68.46
54144;BME280;40050;47.324;18.792;2022-09-09T06:48:04;1001.92;;;21.91;69.51
54144;BME280;40050;47.324;18.792;2022-09-09T06:50:05;1001.99;;;21.98;69.13
54144;BME280;40050;47.324;18.792;2022-09-09T06:52:06;1001.99;;;22.01;69.71
54144;BME280;40050;47.324;18.792;2022-09-09T06:54:07;1002.01;;;22.03;69.31
54144;BME280;40050;47.324;18.792;2022-09-09T06:56:27;1002.02;;;22.12;68.33
54144;BME280;40050;47.324;18.792;2022-09-09T06:58:24;1002.05;;;22.10;67.85
54144;BME280;40050;47.324;18.792;2022-09-09T07:00:24;1002.06;;;22.09;68.37
54144;BME280;40050;47.324;18.792;2022-09-09T07:02:25;1002.09;;;22.10;68.31
54144;BME280;40050;47.324;18.792;2022-09-09T07:04:26;1002.08;;;22.09;68.73
54144;BME280;40050;47.324;18.792;2022-09-09T07:06:28;1002.13;;;22.15;69.10
54144;BME280;40050;47.324;18.792;2022-09-09T07:08:29;1002.12;;;22.23;68.30
54144;BME280;40050;47.324;18.792;2022-09-09T07:10:30;1002.08;;;22.27;68.19
54144;BME280;40050;47.324;18.792;2022-09-09T07:12:31;1002.11;;;22.38;67.88
54144;BME280;40050;47.324;18.792;2022-09-09T07:14:32;1002.06;;;22.48;67.87
54144;BME280;40050;47.324;18.792;2022-09-09T07:16:33;1002.06;;;22.55;67.31
54144;BME280;40050;47.324;18.792;2022-09-09T07:18:34;1002.06;;;22.62;67.74
54144;BME280;40050;47.324;18.792;2022-09-09T07:20:35;1002.10;;;22.73;67.50
54144;BME280;40050;47.324;18.792;2022-09-09T07:22:36;1002.08;;;22.83;67.91
54144;BME280;40050;47.324;18.792;2022-09-09T07:24:37;1002.11;;;22.97;67.97
54144;BME280;40050;47.324;18.792;2022-09-09T07:26:38;1002.11;;;23.13;67.40
54144;BME280;40050;47.324;18.792;2022-09-09T07:28:39;1002.13;;;23.29;66.44
54144;BME280;40050;47.324;18.792;2022-09-09T07:30:40;1002.08;;;23.44;66.89
54144;BME280;40050;47.324;18.792;2022-09-09T07:32:41;1002.18;;;23.60;66.47
54144;BME280;40050;47.324;18.792;2022-09-09T07:34:42;1002.17;;;23.80;67.00
54144;BME280;40050;47.324;18.792;2022-09-09T07:36:43;1002.19;;;24.02;66.90
54144;BME280;40050;47.324;18.792;2022-09-09T07:38:45;1002.21;;;24.19;64.27
54144;BME280;40050;47.324;18.792;2022-09-09T07:42:48;1002.18;;;24.47;63.30
54144;BME280;40050;47.324;18.792;2022-09-09T07:44:49;1002.04;;;24.61;62.15
54144;BME280;40050;47.324;18.792;2022-09-09T07:46:52;1002.14;;;24.83;60.91
54144;BME280;40050;47.324;18.792;2022-09-09T07:48:54;1002.07;;;24.93;61.95
54144;BME280;40050;47.324;18.792;2022-09-09T07:51:08;1002.08;;;25.05;61.90
54144;BME280;40050;47.324;18.792;2022-09-09T07:53:10;1002.09;;;25.26;61.89
54144;BME280;40050;47.324;18.792;2022-09-09T07:55:11;1002.03;;;25.38;60.18
54144;BME280;40050;47.324;18.792;2022-09-09T07:57:12;1002.02;;;25.52;59.62
54144;BME280;40050;47.324;18.792;2022-09-09T07:59:13;1001.98;;;25.68;59.78
54144;BME280;40050;47.324;18.792;2022-09-09T08:01:17;1001.98;;;25.84;58.76
54144;BME280;40050;47.324;18.792;2022-09-09T08:03:19;1001.99;;;25.97;59.08
54144;BME280;40050;47.324;18.792;2022-09-09T08:05:20;1002.02;;;26.07;58.12
54144;BME280;40050;47.324;18.792;2022-09-09T08:07:21;1002.05;;;26.18;57.74
54144;BME280;40050;47.324;18.792;2022-09-09T08:09:22;1002.07;;;26.32;56.50
54144;BME280;40050;47.324;18.792;2022-09-09T08:11:24;1002.07;;;26.45;56.90
54144;BME280;40050;47.324;18.792;2022-09-09T08:13:25;1002.10;;;26.60;56.55
54144;BME280;40050;47.324;18.792;2022-09-09T08:15:26;1002.03;;;26.74;56.38
54144;BME280;40050;47.324;18.792;2022-09-09T08:17:27;1002.08;;;26.90;54.62
54144;BME280;40050;47.324;18.792;2022-09-09T08:19:28;1002.09;;;27.01;53.94
54144;BME280;40050;47.324;18.792;2022-09-09T08:21:29;1002.08;;;27.13;54.02
54144;BME280;40050;47.324;18.792;2022-09-09T08:23:31;1002.06;;;27.23;53.35
54144;BME280;40050;47.324;18.792;2022-09-09T08:25:32;1002.11;;;27.37;54.09
54144;BME280;40050;47.324;18.792;2022-09-09T08:27:33;1002.06;;;27.50;53.07
54144;BME280;40050;47.324;18.792;2022-09-09T08:29:34;1002.12;;;27.64;52.05
54144;BME280;40050;47.324;18.792;2022-09-09T08:31:48;1002.11;;;27.76;51.96
54144;BME280;40050;47.324;18.792;2022-09-09T08:33:49;1002.12;;;27.85;51.35
54144;BME280;40050;47.324;18.792;2022-09-09T08:35:50;1002.14;;;27.99;51.10
54144;BME280;40050;47.324;18.792;2022-09-09T08:37:53;1002.12;;;28.11;51.28
54144;BME280;40050;47.324;18.792;2022-09-09T08:39:54;1002.14;;;28.27;50.99
54144;BME280;40050;47.324;18.792;2022-09-09T08:42:08;1002.13;;;28.41;51.03
54144;BME280;40050;47.324;18.792;2022-09-09T08:46:46;1002.15;;;28.63;48.55
54144;BME280;40050;47.324;18.792;2022-09-09T08:51:19;1002.20;;;28.88;47.44
54144;BME280;40050;47.324;18.792;2022-09-09T08:53:24;1002.20;;;28.93;47.21
54144;BME280;40050;47.324;18.792;2022-09-09T08:57:54;1002.15;;;29.16;47.74
54144;BME280;40050;47.324;18.792;2022-09-09T08:59:55;1002.10;;;29.30;45.93
54144;BME280;40050;47.324;18.792;2022-09-09T09:02:15;1002.08;;;29.35;46.67
54144;BME280;40050;47.324;18.792;2022-09-09T09:06:29;1002.01;;;29.64;45.90
54144;BME280;40050;47.324;18.792;2022-09-09T09:08:43;1002.02;;;29.78;44.82
54144;BME280;40050;47.324;18.792;2022-09-09T09:10:46;1002.05;;;29.90;44.69
54144;BME280;40050;47.324;18.792;2022-09-09T09:12:49;1001.95;;;29.98;44.02
54144;BME280;40050;47.324;18.792;2022-09-09T09:14:49;1001.97;;;30.10;44.65
54144;BME280;40050;47.324;18.792;2022-09-09T09:16:55;1001.88;;;30.15;43.68
54144;BME280;40050;47.324;18.792;2022-09-09T09:18:57;1001.87;;;30.25;42.76
54144;BME280;40050;47.324;18.792;2022-09-09T09:21:03;1001.84;;;30.22;43.96
54144;BME280;40050;47.324;18.792;2022-09-09T09:23:04;1001.79;;;30.27;43.14
54144;BME280;40050;47.324;18.792;2022-09-09T09:25:19;1001.76;;;30.30;42.73
54144;BME280;40050;47.324;18.792;2022-09-09T09:27:25;1001.74;;;30.38;42.11
54144;BME280;40050;47.324;18.792;2022-09-09T09:29:28;1001.74;;;30.51;43.17
54144;BME280;40050;47.324;18.792;2022-09-09T09:31:29;1001.72;;;30.57;42.87
54144;BME280;40050;47.324;18.792;2022-09-09T09:33:40;1001.79;;;30.66;42.37
54144;BME280;40050;47.324;18.792;2022-09-09T09:35:42;1001.73;;;30.73;40.90
54144;BME280;40050;47.324;18.792;2022-09-09T09:37:43;1001.74;;;30.75;40.39
54144;BME280;40050;47.324;18.792;2022-09-09T09:39:44;1001.75;;;30.79;42.66
54144;BME280;40050;47.324;18.792;2022-09-09T09:41:45;1001.80;;;30.79;40.95
54144;BME280;40050;47.324;18.792;2022-09-09T09:43:52;1001.81;;;30.78;39.89
54144;BME280;40050;47.324;18.792;2022-09-09T09:45:53;1001.86;;;30.76;39.46
54144;BME280;40050;47.324;18.792;2022-09-09T09:48:08;1001.86;;;30.72;40.02
54144;BME280;40050;47.324;18.792;2022-09-09T09:50:17;1001.80;;;30.66;39.85
54144;BME280;40050;47.324;18.792;2022-09-09T09:52:21;1001.85;;;30.64;40.40
54144;BME280;40050;47.324;18.792;2022-09-09T09:54:23;1001.86;;;30.67;39.99
54144;BME280;40050;47.324;18.792;2022-09-09T09:56:27;1001.63;;;30.59;40.92
54144;BME280;40050;47.324;18.792;2022-09-09T09:58:32;1001.83;;;30.77;40.20
54144;BME280;40050;47.324;18.792;2022-09-09T10:00:34;1001.79;;;30.78;40.35
54144;BME280;40050;47.324;18.792;2022-09-09T10:02:39;1001.88;;;30.81;39.58
54144;BME280;40050;47.324;18.792;2022-09-09T10:04:40;1001.75;;;30.87;40.33
54144;BME280;40050;47.324;18.792;2022-09-09T10:06:41;1001.69;;;30.91;39.71
54144;BME280;40050;47.324;18.792;2022-09-09T10:08:45;1001.73;;;30.97;40.28
54144;BME280;40050;47.324;18.792;2022-09-09T10:11:04;1001.51;;;30.84;40.17
54144;BME280;40050;47.324;18.792;2022-09-09T10:13:18;1001.72;;;31.00;39.29
54144;BME280;40050;47.324;18.792;2022-09-09T10:18:34;1001.69;;;31.11;39.16
54144;BME280;40050;47.324;18.792;2022-09-09T10:22:27;1001.73;;;30.94;39.04
54144;BME280;40050;47.324;18.792;2022-09-09T10:24:42;1001.79;;;30.94;39.78
54144;BME280;40050;47.324;18.792;2022-09-09T10:29:08;1001.80;;;30.92;40.94
54144;BME280;40050;47.324;18.792;2022-09-09T10:31:21;1001.75;;;30.95;40.46
54144;BME280;40050;47.324;18.792;2022-09-09T10:33:28;1001.71;;;30.90;37.92
54144;BME280;40050;47.324;18.792;2022-09-09T10:35:52;1001.74;;;30.77;37.87
54144;BME280;40050;47.324;18.792;2022-09-09T10:38:05;1001.69;;;30.68;39.91
54144;BME280;40050;47.324;18.792;2022-09-09T10:40:17;1001.67;;;30.67;38.89
54144;BME280;40050;47.324;18.792;2022-09-09T10:42:22;1001.64;;;30.59;40.02
54144;BME280;40050;47.324;18.792;2022-09-09T10:44:36;1001.64;;;30.57;39.96
54144;BME280;40050;47.324;18.792;2022-09-09T10:51:49;1001.61;;;30.56;39.50
54144;BME280;40050;47.324;18.792;2022-09-09T10:56:17;1001.39;;;30.40;37.69
54144;BME280;40050;47.324;18.792;2022-09-09T10:58:52;1001.61;;;30.45;37.52
54144;BME280;40050;47.324;18.792;2022-09-09T11:00:56;1001.58;;;30.33;39.26
54144;BME280;40050;47.324;18.792;2022-09-09T11:03:03;1001.59;;;30.24;37.77
54144;BME280;40050;47.324;18.792;2022-09-09T11:05:06;1001.53;;;30.08;38.47
54144;BME280;40050;47.324;18.792;2022-09-09T11:07:10;1001.63;;;30.08;40.63
54144;BME280;40050;47.324;18.792;2022-09-09T11:09:15;1001.61;;;30.09;38.38
54144;BME280;40050;47.324;18.792;2022-09-09T11:11:37;1001.63;;;30.04;36.65
54144;BME280;40050;47.324;18.792;2022-09-09T11:13:45;1001.56;;;30.00;36.36
54144;BME280;40050;47.324;18.792;2022-09-09T11:15:49;1001.52;;;29.97;35.36
54144;BME280;40050;47.324;18.792;2022-09-09T11:17:53;1001.59;;;30.10;36.71
54144;BME280;40050;47.324;18.792;2022-09-09T11:19:56;1001.65;;;30.12;36.37
54144;BME280;40050;47.324;18.792;2022-09-09T11:21:57;1001.66;;;30.09;36.42
54144;BME280;40050;47.324;18.792;2022-09-09T11:24:03;1001.67;;;30.08;35.24
54144;BME280;40050;47.324;18.792;2022-09-09T11:26:06;1001.70;;;30.03;36.82
54144;BME280;40050;47.324;18.792;2022-09-09T11:28:16;1001.71;;;30.02;38.02
54144;BME280;40050;47.324;18.792;2022-09-09T11:30:31;1001.60;;;29.98;37.36
54144;BME280;40050;47.324;18.792;2022-09-09T11:34:56;1001.48;;;29.98;38.04
54144;BME280;40050;47.324;18.792;2022-09-09T11:37:17;1001.52;;;29.94;39.39
54144;BME280;40050;47.324;18.792;2022-09-09T11:39:36;1001.48;;;29.88;39.69
54144;BME280;40050;47.324;18.792;2022-09-09T11:41:39;1001.47;;;29.85;40.89
54144;BME280;40050;47.324;18.792;2022-09-09T11:43:43;1001.49;;;29.89;39.77
54144;BME280;40050;47.324;18.792;2022-09-09T11:45:50;1001.47;;;29.88;38.07
54144;BME280;40050;47.324;18.792;2022-09-09T11:47:55;1001.49;;;29.90;38.08